Portada
METAR-TAF:

METAR-TAF

Aeroports :

Midlands de l'Est, Anglaterra

latitud: 52-50N, longitud: 001-20W, altitud: 94 m

Observació

L'informe es va fer fa 22 minuts, a les 13:50 UTC
Vent 8 kt del Oest
Temperatura 22°C
Humitat 60%
Pressió 1018 hPa
Visibilitat 10 km o més
Núvols disperses a una alçada de 4700 ft

METAR: EGNX 161350Z 27008KT 9999 SCT047 22/14 Q1018

Hora: 15:12 (14:12 UTC)

Pronòstic

L'informe es va fer fa 3 hores i 16 minuts, a les 10:56 UTC
Pronòstic vàlid del 16 a les 12 UTC al 17 a les 12 UTC
Vent 5 kt del Oest
Visibilitat 10 km o més
Núvols disperses a una alçada de 3000 ft
Probabilitat 30% :
Temporalment
l' 16 a les 12 UTC al 16 a les 17 UTC
Visibilitat: 7000 m
xàfecs de pluja
Probabilitat 30%
l' 17 a les 00 UTC al 17 a les 08 UTC
Visibilitat: 9000 m

TAF: EGNX 161056Z 1612/1712 27005KT 9999 SCT030 PROB30 TEMPO 1612/1617 7000 SHRA PROB30 1700/1708 9000

Observacions i pronòstics meteorològics de més de 4000 aeroports (METAR i TAF).

Les estacions disponibles són els punts grocs i vermells al mapa.

Posi el ratolí al punt desitjat per veure el nom de l'estació.

Feu clic per veure les observacions i els pronòstics meteorològics.

Per canviar el mapa: feu clic els botons verds amb una creu de color negre per apropar; al botó verd amb un guió per allunyar la imatge; o en les fletxes verdes per a mapes adjacents.


METAR-TAF: